sensor_id;sensor_type;location;lat;lon;timestamp;P1;durP1;ratioP1;P2;durP2;ratioP2
74080;SDS011;62438;52.228;6.864;2023-01-06T00:01:51;9.98;;;3.45;;
74080;SDS011;62438;52.228;6.864;2023-01-06T00:03:53;14.18;;;4.20;;
74080;SDS011;62438;52.228;6.864;2023-01-06T00:05:58;11.57;;;3.22;;
74080;SDS011;62438;52.228;6.864;2023-01-06T00:08:00;10.63;;;3.33;;
74080;SDS011;62438;52.228;6.864;2023-01-06T00:10:00;9.95;;;3.65;;
74080;SDS011;62438;52.228;6.864;2023-01-06T00:12:01;12.38;;;3.10;;
74080;SDS011;62438;52.228;6.864;2023-01-06T00:14:03;8.13;;;3.17;;
74080;SDS011;62438;52.228;6.864;2023-01-06T00:16:08;10.02;;;2.83;;
74080;SDS011;62438;52.228;6.864;2023-01-06T00:18:10;10.32;;;2.97;;
74080;SDS011;62438;52.228;6.864;2023-01-06T00:20:11;12.95;;;3.20;;
74080;SDS011;62438;52.228;6.864;2023-01-06T00:22:12;12.45;;;3.00;;
74080;SDS011;62438;52.228;6.864;2023-01-06T00:24:12;13.77;;;3.10;;
74080;SDS011;62438;52.228;6.864;2023-01-06T00:26:13;7.88;;;2.88;;
74080;SDS011;62438;52.228;6.864;2023-01-06T00:28:13;9.18;;;2.58;;
74080;SDS011;62438;52.228;6.864;2023-01-06T00:30:14;8.00;;;2.67;;
74080;SDS011;62438;52.228;6.864;2023-01-06T00:32:14;12.15;;;3.17;;
74080;SDS011;62438;52.228;6.864;2023-01-06T00:34:15;13.88;;;2.83;;
74080;SDS011;62438;52.228;6.864;2023-01-06T00:36:16;8.93;;;3.10;;
74080;SDS011;62438;52.228;6.864;2023-01-06T00:38:16;10.95;;;2.95;;
74080;SDS011;62438;52.228;6.864;2023-01-06T00:40:16;10.18;;;3.13;;
74080;SDS011;62438;52.228;6.864;2023-01-06T00:42:17;10.55;;;3.20;;
74080;SDS011;62438;52.228;6.864;2023-01-06T00:44:17;9.23;;;3.03;;
74080;SDS011;62438;52.228;6.864;2023-01-06T00:46:18;9.63;;;2.75;;
74080;SDS011;62438;52.228;6.864;2023-01-06T00:48:18;12.40;;;3.00;;
74080;SDS011;62438;52.228;6.864;2023-01-06T00:50:19;11.80;;;3.88;;
74080;SDS011;62438;52.228;6.864;2023-01-06T00:52:22;9.27;;;2.90;;
74080;SDS011;62438;52.228;6.864;2023-01-06T00:54:24;8.10;;;3.45;;
74080;SDS011;62438;52.228;6.864;2023-01-06T00:56:25;9.65;;;3.00;;
74080;SDS011;62438;52.228;6.864;2023-01-06T00:58:28;11.48;;;3.13;;
74080;SDS011;62438;52.228;6.864;2023-01-06T01:00:29;10.73;;;3.47;;
74080;SDS011;62438;52.228;6.864;2023-01-06T01:02:29;10.18;;;3.83;;
74080;SDS011;62438;52.228;6.864;2023-01-06T01:04:30;13.88;;;3.90;;
74080;SDS011;62438;52.228;6.864;2023-01-06T01:06:30;13.15;;;5.00;;
74080;SDS011;62438;52.228;6.864;2023-01-06T01:08:31;11.75;;;3.45;;
74080;SDS011;62438;52.228;6.864;2023-01-06T01:10:32;12.93;;;4.05;;
74080;SDS011;62438;52.228;6.864;2023-01-06T01:12:33;9.95;;;3.33;;
74080;SDS011;62438;52.228;6.864;2023-01-06T01:14:33;10.45;;;3.63;;
74080;SDS011;62438;52.228;6.864;2023-01-06T01:16:38;11.88;;;3.70;;
74080;SDS011;62438;52.228;6.864;2023-01-06T01:18:39;11.00;;;3.88;;
74080;SDS011;62438;52.228;6.864;2023-01-06T01:20:44;10.82;;;3.72;;
74080;SDS011;62438;52.228;6.864;2023-01-06T01:22:45;9.57;;;4.32;;
74080;SDS011;62438;52.228;6.864;2023-01-06T01:24:46;10.90;;;4.45;;
74080;SDS011;62438;52.228;6.864;2023-01-06T01:26:46;12.98;;;4.80;;
74080;SDS011;62438;52.228;6.864;2023-01-06T01:28:47;11.73;;;4.47;;
74080;SDS011;62438;52.228;6.864;2023-01-06T01:30:47;11.18;;;4.38;;
74080;SDS011;62438;52.228;6.864;2023-01-06T01:32:48;13.55;;;4.22;;
74080;SDS011;62438;52.228;6.864;2023-01-06T01:34:48;10.43;;;4.88;;
74080;SDS011;62438;52.228;6.864;2023-01-06T01:36:49;12.48;;;4.45;;
74080;SDS011;62438;52.228;6.864;2023-01-06T01:38:51;11.07;;;3.97;;
74080;SDS011;62438;52.228;6.864;2023-01-06T01:40:51;11.93;;;3.83;;
74080;SDS011;62438;52.228;6.864;2023-01-06T01:42:52;12.07;;;3.47;;
74080;SDS011;62438;52.228;6.864;2023-01-06T01:46:55;11.18;;;3.47;;
74080;SDS011;62438;52.228;6.864;2023-01-06T01:48:57;10.13;;;3.20;;
74080;SDS011;62438;52.228;6.864;2023-01-06T01:51:27;8.90;;;3.00;;
74080;SDS011;62438;52.228;6.864;2023-01-06T01:53:31;10.35;;;3.22;;
74080;SDS011;62438;52.228;6.864;2023-01-06T01:55:36;10.85;;;3.22;;
74080;SDS011;62438;52.228;6.864;2023-01-06T01:57:39;9.65;;;3.55;;
74080;SDS011;62438;52.228;6.864;2023-01-06T01:59:50;13.13;;;3.60;;
74080;SDS011;62438;52.228;6.864;2023-01-06T02:01:51;10.48;;;4.00;;
74080;SDS011;62438;52.228;6.864;2023-01-06T02:03:53;10.13;;;3.53;;
74080;SDS011;62438;52.228;6.864;2023-01-06T02:05:55;11.82;;;3.97;;
74080;SDS011;62438;52.228;6.864;2023-01-06T02:07:59;10.98;;;4.55;;
74080;SDS011;62438;52.228;6.864;2023-01-06T02:10:18;13.45;;;4.72;;
74080;SDS011;62438;52.228;6.864;2023-01-06T02:12:20;12.20;;;5.13;;
74080;SDS011;62438;52.228;6.864;2023-01-06T02:14:22;12.52;;;5.03;;
74080;SDS011;62438;52.228;6.864;2023-01-06T02:16:34;11.13;;;4.97;;
74080;SDS011;62438;52.228;6.864;2023-01-06T02:18:48;12.57;;;5.47;;
74080;SDS011;62438;52.228;6.864;2023-01-06T02:30:16;12.70;;;5.10;;
74080;SDS011;62438;52.228;6.864;2023-01-06T02:34:50;15.23;;;5.30;;
74080;SDS011;62438;52.228;6.864;2023-01-06T02:50:32;10.80;;;4.20;;
74080;SDS011;62438;52.228;6.864;2023-01-06T02:55:20;10.68;;;3.83;;
74080;SDS011;62438;52.228;6.864;2023-01-06T02:59:41;12.18;;;3.83;;
74080;SDS011;62438;52.228;6.864;2023-01-06T03:01:47;12.68;;;3.58;;
74080;SDS011;62438;52.228;6.864;2023-01-06T03:03:51;9.50;;;3.25;;
74080;SDS011;62438;52.228;6.864;2023-01-06T03:07:58;12.18;;;3.25;;
74080;SDS011;62438;52.228;6.864;2023-01-06T03:10:04;7.78;;;3.00;;
74080;SDS011;62438;52.228;6.864;2023-01-06T03:12:07;12.35;;;4.00;;
74080;SDS011;62438;52.228;6.864;2023-01-06T03:16:31;7.60;;;2.50;;
74080;SDS011;62438;52.228;6.864;2023-01-06T03:18:31;10.05;;;2.90;;
74080;SDS011;62438;52.228;6.864;2023-01-06T03:20:32;10.70;;;2.67;;
74080;SDS011;62438;52.228;6.864;2023-01-06T03:22:34;9.00;;;2.78;;
74080;SDS011;62438;52.228;6.864;2023-01-06T03:24:37;8.65;;;2.30;;
74080;SDS011;62438;52.228;6.864;2023-01-06T03:26:38;10.68;;;2.85;;
74080;SDS011;62438;52.228;6.864;2023-01-06T03:28:39;10.10;;;2.40;;
74080;SDS011;62438;52.228;6.864;2023-01-06T03:30:42;8.93;;;2.33;;
74080;SDS011;62438;52.228;6.864;2023-01-06T03:33:07;9.23;;;2.58;;
74080;SDS011;62438;52.228;6.864;2023-01-06T03:35:40;8.38;;;2.40;;
74080;SDS011;62438;52.228;6.864;2023-01-06T03:37:55;7.68;;;2.33;;
74080;SDS011;62438;52.228;6.864;2023-01-06T03:40:13;7.35;;;2.20;;
74080;SDS011;62438;52.228;6.864;2023-01-06T03:44:43;7.03;;;2.47;;
74080;SDS011;62438;52.228;6.864;2023-01-06T03:46:50;9.73;;;2.33;;
74080;SDS011;62438;52.228;6.864;2023-01-06T03:51:45;5.90;;;1.52;;
74080;SDS011;62438;52.228;6.864;2023-01-06T03:53:42;7.65;;;2.08;;
74080;SDS011;62438;52.228;6.864;2023-01-06T03:55:50;8.45;;;1.90;;
74080;SDS011;62438;52.228;6.864;2023-01-06T03:57:57;7.70;;;1.73;;
74080;SDS011;62438;52.228;6.864;2023-01-06T04:00:18;5.07;;;1.58;;
74080;SDS011;62438;52.228;6.864;2023-01-06T04:02:22;7.93;;;1.85;;
74080;SDS011;62438;52.228;6.864;2023-01-06T04:04:23;6.07;;;1.85;;
74080;SDS011;62438;52.228;6.864;2023-01-06T04:06:24;6.90;;;1.58;;
74080;SDS011;62438;52.228;6.864;2023-01-06T04:08:25;5.28;;;1.35;;
74080;SDS011;62438;52.228;6.864;2023-01-06T04:10:25;9.10;;;1.58;;
74080;SDS011;62438;52.228;6.864;2023-01-06T04:12:25;6.72;;;1.63;;
74080;SDS011;62438;52.228;6.864;2023-01-06T04:14:38;6.75;;;1.52;;
74080;SDS011;62438;52.228;6.864;2023-01-06T04:16:38;6.13;;;1.48;;
74080;SDS011;62438;52.228;6.864;2023-01-06T04:18:39;4.75;;;1.13;;
74080;SDS011;62438;52.228;6.864;2023-01-06T04:20:39;6.63;;;1.40;;
74080;SDS011;62438;52.228;6.864;2023-01-06T04:22:40;6.70;;;1.48;;
74080;SDS011;62438;52.228;6.864;2023-01-06T04:24:40;7.18;;;1.40;;
74080;SDS011;62438;52.228;6.864;2023-01-06T04:26:40;6.47;;;1.30;;
74080;SDS011;62438;52.228;6.864;2023-01-06T04:28:41;4.57;;;1.13;;
74080;SDS011;62438;52.228;6.864;2023-01-06T04:30:41;4.65;;;1.25;;
74080;SDS011;62438;52.228;6.864;2023-01-06T04:32:42;6.30;;;1.20;;
74080;SDS011;62438;52.228;6.864;2023-01-06T04:34:43;2.55;;;0.90;;
74080;SDS011;62438;52.228;6.864;2023-01-06T04:36:43;5.40;;;1.17;;
74080;SDS011;62438;52.228;6.864;2023-01-06T04:38:44;9.45;;;1.52;;
74080;SDS011;62438;52.228;6.864;2023-01-06T04:40:45;6.43;;;1.45;;
74080;SDS011;62438;52.228;6.864;2023-01-06T04:42:46;5.20;;;1.00;;
74080;SDS011;62438;52.228;6.864;2023-01-06T04:45:04;5.32;;;1.20;;
74080;SDS011;62438;52.228;6.864;2023-01-06T04:47:05;7.18;;;1.33;;
74080;SDS011;62438;52.228;6.864;2023-01-06T04:49:05;5.78;;;1.20;;
74080;SDS011;62438;52.228;6.864;2023-01-06T04:51:07;4.03;;;0.90;;
74080;SDS011;62438;52.228;6.864;2023-01-06T04:53:09;4.53;;;1.10;;
74080;SDS011;62438;52.228;6.864;2023-01-06T04:55:10;5.95;;;1.42;;
74080;SDS011;62438;52.228;6.864;2023-01-06T04:57:11;4.53;;;1.20;;
74080;SDS011;62438;52.228;6.864;2023-01-06T04:59:11;3.30;;;1.13;;
74080;SDS011;62438;52.228;6.864;2023-01-06T05:01:12;6.05;;;1.58;;
74080;SDS011;62438;52.228;6.864;2023-01-06T05:03:13;6.57;;;1.25;;
74080;SDS011;62438;52.228;6.864;2023-01-06T05:05:14;4.80;;;1.25;;
74080;SDS011;62438;52.228;6.864;2023-01-06T05:07:17;4.45;;;1.00;;
74080;SDS011;62438;52.228;6.864;2023-01-06T05:09:18;6.30;;;1.15;;
74080;SDS011;62438;52.228;6.864;2023-01-06T05:11:19;5.50;;;1.20;;
74080;SDS011;62438;52.228;6.864;2023-01-06T05:13:21;5.28;;;1.20;;
74080;SDS011;62438;52.228;6.864;2023-01-06T05:15:22;5.47;;;1.20;;
74080;SDS011;62438;52.228;6.864;2023-01-06T05:17:22;4.10;;;1.10;;
74080;SDS011;62438;52.228;6.864;2023-01-06T05:19:23;8.15;;;1.10;;
74080;SDS011;62438;52.228;6.864;2023-01-06T05:21:24;5.53;;;1.20;;
74080;SDS011;62438;52.228;6.864;2023-01-06T05:23:26;9.60;;;1.15;;
74080;SDS011;62438;52.228;6.864;2023-01-06T05:25:27;4.93;;;1.00;;
74080;SDS011;62438;52.228;6.864;2023-01-06T05:27:27;4.90;;;1.00;;
74080;SDS011;62438;52.228;6.864;2023-01-06T05:29:28;5.63;;;1.13;;
74080;SDS011;62438;52.228;6.864;2023-01-06T05:31:29;7.03;;;1.15;;
74080;SDS011;62438;52.228;6.864;2023-01-06T05:33:29;5.78;;;1.10;;
74080;SDS011;62438;52.228;6.864;2023-01-06T05:35:31;6.47;;;1.00;;
74080;SDS011;62438;52.228;6.864;2023-01-06T05:37:31;3.88;;;1.00;;
74080;SDS011;62438;52.228;6.864;2023-01-06T05:39:32;6.07;;;1.52;;
74080;SDS011;62438;52.228;6.864;2023-01-06T05:41:32;5.38;;;1.27;;
74080;SDS011;62438;52.228;6.864;2023-01-06T05:43:33;5.45;;;1.23;;
74080;SDS011;62438;52.228;6.864;2023-01-06T05:45:35;5.53;;;1.08;;
74080;SDS011;62438;52.228;6.864;2023-01-06T05:47:35;8.30;;;0.90;;
74080;SDS011;62438;52.228;6.864;2023-01-06T05:49:36;4.35;;;1.00;;
74080;SDS011;62438;52.228;6.864;2023-01-06T05:51:36;4.07;;;1.00;;
74080;SDS011;62438;52.228;6.864;2023-01-06T05:53:37;7.45;;;1.58;;
74080;SDS011;62438;52.228;6.864;2023-01-06T05:55:43;5.57;;;1.30;;
74080;SDS011;62438;52.228;6.864;2023-01-06T05:57:43;5.22;;;0.90;;
74080;SDS011;62438;52.228;6.864;2023-01-06T05:59:44;5.93;;;1.08;;
74080;SDS011;62438;52.228;6.864;2023-01-06T06:01:44;4.05;;;1.10;;
74080;SDS011;62438;52.228;6.864;2023-01-06T06:03:45;7.53;;;1.10;;
74080;SDS011;62438;52.228;6.864;2023-01-06T06:05:45;4.55;;;1.13;;
74080;SDS011;62438;52.228;6.864;2023-01-06T06:07:55;4.00;;;1.08;;
74080;SDS011;62438;52.228;6.864;2023-01-06T06:09:55;4.47;;;1.00;;
74080;SDS011;62438;52.228;6.864;2023-01-06T06:11:56;4.38;;;1.13;;
74080;SDS011;62438;52.228;6.864;2023-01-06T06:13:56;4.97;;;1.33;;
74080;SDS011;62438;52.228;6.864;2023-01-06T06:16:06;5.18;;;1.00;;
74080;SDS011;62438;52.228;6.864;2023-01-06T06:18:08;4.22;;;1.08;;
74080;SDS011;62438;52.228;6.864;2023-01-06T06:20:09;5.85;;;0.93;;
74080;SDS011;62438;52.228;6.864;2023-01-06T06:22:09;4.20;;;1.33;;
74080;SDS011;62438;52.228;6.864;2023-01-06T06:24:10;5.30;;;1.42;;
74080;SDS011;62438;52.228;6.864;2023-01-06T06:26:10;4.28;;;1.10;;
74080;SDS011;62438;52.228;6.864;2023-01-06T06:28:11;7.57;;;1.52;;
74080;SDS011;62438;52.228;6.864;2023-01-06T06:30:14;5.93;;;1.08;;
74080;SDS011;62438;52.228;6.864;2023-01-06T06:32:16;3.85;;;1.00;;
74080;SDS011;62438;52.228;6.864;2023-01-06T06:34:17;4.90;;;1.60;;
74080;SDS011;62438;52.228;6.864;2023-01-06T06:36:17;5.22;;;1.15;;
74080;SDS011;62438;52.228;6.864;2023-01-06T06:38:18;5.97;;;1.20;;
74080;SDS011;62438;52.228;6.864;2023-01-06T06:40:18;5.88;;;1.20;;
74080;SDS011;62438;52.228;6.864;2023-01-06T06:42:18;3.75;;;1.10;;
74080;SDS011;62438;52.228;6.864;2023-01-06T06:49:20;6.00;;;1.42;;
74080;SDS011;62438;52.228;6.864;2023-01-06T06:51:21;4.28;;;1.30;;
74080;SDS011;62438;52.228;6.864;2023-01-06T06:53:22;6.32;;;1.15;;
74080;SDS011;62438;52.228;6.864;2023-01-06T06:55:23;6.60;;;1.65;;
74080;SDS011;62438;52.228;6.864;2023-01-06T06:57:23;6.40;;;1.45;;
74080;SDS011;62438;52.228;6.864;2023-01-06T06:59:23;4.07;;;1.33;;
74080;SDS011;62438;52.228;6.864;2023-01-06T07:01:24;3.75;;;1.33;;
74080;SDS011;62438;52.228;6.864;2023-01-06T07:03:24;5.22;;;1.42;;
74080;SDS011;62438;52.228;6.864;2023-01-06T07:05:25;4.00;;;1.27;;
74080;SDS011;62438;52.228;6.864;2023-01-06T07:07:25;5.07;;;1.30;;
74080;SDS011;62438;52.228;6.864;2023-01-06T07:09:28;5.55;;;1.30;;
74080;SDS011;62438;52.228;6.864;2023-01-06T07:11:29;8.00;;;1.65;;
74080;SDS011;62438;52.228;6.864;2023-01-06T07:13:29;7.93;;;1.50;;
74080;SDS011;62438;52.228;6.864;2023-01-06T07:15:30;4.25;;;1.38;;
74080;SDS011;62438;52.228;6.864;2023-01-06T07:17:31;4.25;;;1.30;;
74080;SDS011;62438;52.228;6.864;2023-01-06T07:19:32;6.03;;;1.30;;
74080;SDS011;62438;52.228;6.864;2023-01-06T07:21:32;4.95;;;1.52;;
74080;SDS011;62438;52.228;6.864;2023-01-06T07:23:33;5.00;;;1.70;;
74080;SDS011;62438;52.228;6.864;2023-01-06T07:25:33;3.97;;;1.50;;
74080;SDS011;62438;52.228;6.864;2023-01-06T07:27:34;7.78;;;2.00;;
74080;SDS011;62438;52.228;6.864;2023-01-06T07:29:35;7.47;;;1.70;;
74080;SDS011;62438;52.228;6.864;2023-01-06T07:31:36;5.43;;;1.40;;
74080;SDS011;62438;52.228;6.864;2023-01-06T07:33:36;6.57;;;1.63;;
74080;SDS011;62438;52.228;6.864;2023-01-06T07:35:39;5.20;;;1.48;;
74080;SDS011;62438;52.228;6.864;2023-01-06T07:37:40;5.90;;;1.65;;
74080;SDS011;62438;52.228;6.864;2023-01-06T07:39:41;6.28;;;1.77;;
74080;SDS011;62438;52.228;6.864;2023-01-06T07:41:41;7.95;;;1.60;;
74080;SDS011;62438;52.228;6.864;2023-01-06T07:43:42;5.70;;;1.80;;
74080;SDS011;62438;52.228;6.864;2023-01-06T07:45:44;4.93;;;1.20;;
74080;SDS011;62438;52.228;6.864;2023-01-06T07:47:45;3.63;;;1.30;;
74080;SDS011;62438;52.228;6.864;2023-01-06T07:49:45;5.10;;;1.40;;
74080;SDS011;62438;52.228;6.864;2023-01-06T07:51:46;5.20;;;1.52;;
74080;SDS011;62438;52.228;6.864;2023-01-06T07:53:46;7.65;;;1.88;;
74080;SDS011;62438;52.228;6.864;2023-01-06T07:55:56;5.25;;;1.58;;
74080;SDS011;62438;52.228;6.864;2023-01-06T07:58:02;5.72;;;1.60;;
74080;SDS011;62438;52.228;6.864;2023-01-06T08:00:04;5.68;;;1.80;;
74080;SDS011;62438;52.228;6.864;2023-01-06T08:02:05;5.97;;;1.80;;
74080;SDS011;62438;52.228;6.864;2023-01-06T08:04:05;11.02;;;2.28;;
74080;SDS011;62438;52.228;6.864;2023-01-06T08:06:09;6.55;;;2.10;;
74080;SDS011;62438;52.228;6.864;2023-01-06T08:08:10;6.43;;;2.22;;
74080;SDS011;62438;52.228;6.864;2023-01-06T08:10:13;6.13;;;2.20;;
74080;SDS011;62438;52.228;6.864;2023-01-06T08:12:21;13.82;;;2.60;;
74080;SDS011;62438;52.228;6.864;2023-01-06T08:14:22;6.70;;;2.70;;
74080;SDS011;62438;52.228;6.864;2023-01-06T08:16:23;6.63;;;2.60;;
74080;SDS011;62438;52.228;6.864;2023-01-06T08:18:23;6.15;;;2.30;;
74080;SDS011;62438;52.228;6.864;2023-01-06T08:20:23;7.07;;;2.47;;
74080;SDS011;62438;52.228;6.864;2023-01-06T08:22:24;10.63;;;2.72;;
74080;SDS011;62438;52.228;6.864;2023-01-06T08:24:24;9.45;;;2.60;;
74080;SDS011;62438;52.228;6.864;2023-01-06T08:26:25;9.95;;;3.30;;
74080;SDS011;62438;52.228;6.864;2023-01-06T08:28:25;8.20;;;3.28;;
74080;SDS011;62438;52.228;6.864;2023-01-06T08:30:29;6.28;;;2.97;;
74080;SDS011;62438;52.228;6.864;2023-01-06T08:32:29;8.32;;;3.03;;
74080;SDS011;62438;52.228;6.864;2023-01-06T08:34:30;6.72;;;2.28;;
74080;SDS011;62438;52.228;6.864;2023-01-06T08:36:31;8.02;;;2.60;;
74080;SDS011;62438;52.228;6.864;2023-01-06T08:39:07;8.38;;;3.05;;
74080;SDS011;62438;52.228;6.864;2023-01-06T09:00:19;9.65;;;3.30;;
74080;SDS011;62438;52.228;6.864;2023-01-06T09:02:49;7.10;;;3.20;;
74080;SDS011;62438;52.228;6.864;2023-01-06T09:11:56;7.82;;;3.30;;
74080;SDS011;62438;52.228;6.864;2023-01-06T09:17:01;8.00;;;3.10;;
74080;SDS011;62438;52.228;6.864;2023-01-06T09:29:09;7.13;;;3.00;;
74080;SDS011;62438;52.228;6.864;2023-01-06T09:42:33;12.25;;;3.83;;
74080;SDS011;62438;52.228;6.864;2023-01-06T09:45:20;7.88;;;3.58;;
74080;SDS011;62438;52.228;6.864;2023-01-06T09:47:56;8.25;;;3.78;;
74080;SDS011;62438;52.228;6.864;2023-01-06T09:52:29;7.95;;;3.25;;
74080;SDS011;62438;52.228;6.864;2023-01-06T09:54:53;11.18;;;4.07;;
74080;SDS011;62438;52.228;6.864;2023-01-06T09:57:02;9.50;;;3.40;;
74080;SDS011;62438;52.228;6.864;2023-01-06T09:59:13;7.82;;;3.65;;
74080;SDS011;62438;52.228;6.864;2023-01-06T10:01:22;8.23;;;3.58;;
74080;SDS011;62438;52.228;6.864;2023-01-06T10:07:52;11.77;;;3.05;;
74080;SDS011;62438;52.228;6.864;2023-01-06T10:27:19;8.40;;;2.55;;
74080;SDS011;62438;52.228;6.864;2023-01-06T10:29:20;7.00;;;2.70;;
74080;SDS011;62438;52.228;6.864;2023-01-06T10:31:25;9.35;;;2.50;;
74080;SDS011;62438;52.228;6.864;2023-01-06T10:33:32;7.40;;;2.35;;
74080;SDS011;62438;52.228;6.864;2023-01-06T10:35:40;8.10;;;2.25;;
74080;SDS011;62438;52.228;6.864;2023-01-06T10:37:44;10.13;;;2.60;;
74080;SDS011;62438;52.228;6.864;2023-01-06T10:39:58;7.22;;;2.67;;
74080;SDS011;62438;52.228;6.864;2023-01-06T10:44:43;5.72;;;2.38;;
74080;SDS011;62438;52.228;6.864;2023-01-06T10:46:49;7.97;;;2.97;;
74080;SDS011;62438;52.228;6.864;2023-01-06T10:48:50;6.13;;;1.95;;
74080;SDS011;62438;52.228;6.864;2023-01-06T10:50:51;5.13;;;2.00;;
74080;SDS011;62438;52.228;6.864;2023-01-06T10:52:52;5.53;;;2.08;;
74080;SDS011;62438;52.228;6.864;2023-01-06T10:54:53;5.00;;;1.70;;
74080;SDS011;62438;52.228;6.864;2023-01-06T10:57:08;7.47;;;1.52;;
74080;SDS011;62438;52.228;6.864;2023-01-06T10:59:14;6.60;;;1.60;;
74080;SDS011;62438;52.228;6.864;2023-01-06T11:01:21;4.72;;;1.30;;
74080;SDS011;62438;52.228;6.864;2023-01-06T11:05:24;5.90;;;1.33;;
74080;SDS011;62438;52.228;6.864;2023-01-06T11:07:27;7.00;;;1.50;;
74080;SDS011;62438;52.228;6.864;2023-01-06T11:09:30;6.22;;;1.27;;
74080;SDS011;62438;52.228;6.864;2023-01-06T11:11:44;4.93;;;1.02;;
74080;SDS011;62438;52.228;6.864;2023-01-06T11:13:48;5.93;;;1.55;;
74080;SDS011;62438;52.228;6.864;2023-01-06T11:15:50;6.80;;;1.17;;
74080;SDS011;62438;52.228;6.864;2023-01-06T11:17:51;9.45;;;1.50;;
74080;SDS011;62438;52.228;6.864;2023-01-06T11:22:30;5.25;;;1.00;;
74080;SDS011;62438;52.228;6.864;2023-01-06T11:24:46;5.43;;;1.00;;
74080;SDS011;62438;52.228;6.864;2023-01-06T11:26:51;6.35;;;1.10;;
74080;SDS011;62438;52.228;6.864;2023-01-06T11:28:53;5.80;;;0.95;;
74080;SDS011;62438;52.228;6.864;2023-01-06T11:30:54;6.88;;;1.10;;
74080;SDS011;62438;52.228;6.864;2023-01-06T11:33:18;4.70;;;1.00;;
74080;SDS011;62438;52.228;6.864;2023-01-06T11:35:21;5.75;;;0.95;;
74080;SDS011;62438;52.228;6.864;2023-01-06T11:37:40;7.68;;;1.05;;
74080;SDS011;62438;52.228;6.864;2023-01-06T11:39:42;7.97;;;1.00;;
74080;SDS011;62438;52.228;6.864;2023-01-06T11:41:46;9.18;;;1.20;;
74080;SDS011;62438;52.228;6.864;2023-01-06T11:43:48;4.82;;;0.90;;
74080;SDS011;62438;52.228;6.864;2023-01-06T11:45:58;5.90;;;1.20;;
74080;SDS011;62438;52.228;6.864;2023-01-06T11:48:11;5.45;;;1.17;;
74080;SDS011;62438;52.228;6.864;2023-01-06T11:50:18;5.70;;;1.50;;
74080;SDS011;62438;52.228;6.864;2023-01-06T11:52:29;6.10;;;1.23;;
74080;SDS011;62438;52.228;6.864;2023-01-06T11:54:37;7.47;;;1.65;;
74080;SDS011;62438;52.228;6.864;2023-01-06T11:56:55;4.88;;;0.80;;
74080;SDS011;62438;52.228;6.864;2023-01-06T12:01:06;4.53;;;0.90;;
74080;SDS011;62438;52.228;6.864;2023-01-06T12:03:36;5.30;;;1.20;;
74080;SDS011;62438;52.228;6.864;2023-01-06T12:07:49;6.28;;;1.23;;
74080;SDS011;62438;52.228;6.864;2023-01-06T12:09:57;4.78;;;1.08;;
74080;SDS011;62438;52.228;6.864;2023-01-06T12:12:18;10.25;;;1.10;;
74080;SDS011;62438;52.228;6.864;2023-01-06T12:14:27;5.03;;;1.33;;
74080;SDS011;62438;52.228;6.864;2023-01-06T12:16:37;6.63;;;1.23;;
74080;SDS011;62438;52.228;6.864;2023-01-06T12:19:03;4.43;;;1.00;;
74080;SDS011;62438;52.228;6.864;2023-01-06T12:21:41;5.68;;;1.30;;
74080;SDS011;62438;52.228;6.864;2023-01-06T12:23:41;5.72;;;1.20;;
74080;SDS011;62438;52.228;6.864;2023-01-06T12:25:45;4.45;;;1.27;;
74080;SDS011;62438;52.228;6.864;2023-01-06T12:30:26;8.40;;;1.58;;
74080;SDS011;62438;52.228;6.864;2023-01-06T12:32:35;6.95;;;1.30;;
74080;SDS011;62438;52.228;6.864;2023-01-06T12:34:40;6.72;;;1.30;;
74080;SDS011;62438;52.228;6.864;2023-01-06T12:41:36;7.57;;;1.30;;
74080;SDS011;62438;52.228;6.864;2023-01-06T12:43:39;4.75;;;1.08;;
74080;SDS011;62438;52.228;6.864;2023-01-06T12:48:57;6.28;;;1.13;;
74080;SDS011;62438;52.228;6.864;2023-01-06T12:53:05;2.97;;;0.75;;
74080;SDS011;62438;52.228;6.864;2023-01-06T12:55:15;9.80;;;0.88;;
74080;SDS011;62438;52.228;6.864;2023-01-06T12:58:04;4.10;;;0.90;;
74080;SDS011;62438;52.228;6.864;2023-01-06T13:16:42;7.53;;;1.00;;
74080;SDS011;62438;52.228;6.864;2023-01-06T13:21:27;6.20;;;1.38;;
74080;SDS011;62438;52.228;6.864;2023-01-06T13:26:41;4.38;;;0.70;;
74080;SDS011;62438;52.228;6.864;2023-01-06T13:34:03;7.13;;;0.68;;
74080;SDS011;62438;52.228;6.864;2023-01-06T13:41:03;6.63;;;1.17;;
74080;SDS011;62438;52.228;6.864;2023-01-06T13:45:45;4.35;;;0.82;;
74080;SDS011;62438;52.228;6.864;2023-01-06T13:47:51;6.75;;;0.77;;
74080;SDS011;62438;52.228;6.864;2023-01-06T13:50:10;8.93;;;1.00;;
74080;SDS011;62438;52.228;6.864;2023-01-06T13:52:18;4.80;;;0.50;;
74080;SDS011;62438;52.228;6.864;2023-01-06T13:56:41;6.65;;;1.75;;
74080;SDS011;62438;52.228;6.864;2023-01-06T13:58:44;4.80;;;1.15;;
74080;SDS011;62438;52.228;6.864;2023-01-06T14:01:06;5.75;;;1.23;;
74080;SDS011;62438;52.228;6.864;2023-01-06T14:03:12;4.15;;;0.80;;
74080;SDS011;62438;52.228;6.864;2023-01-06T14:07:33;4.95;;;0.50;;
74080;SDS011;62438;52.228;6.864;2023-01-06T14:09:44;6.00;;;0.80;;
74080;SDS011;62438;52.228;6.864;2023-01-06T14:11:48;6.43;;;0.75;;
74080;SDS011;62438;52.228;6.864;2023-01-06T14:13:53;6.45;;;0.90;;
74080;SDS011;62438;52.228;6.864;2023-01-06T14:16:07;4.93;;;0.90;;
74080;SDS011;62438;52.228;6.864;2023-01-06T14:18:26;4.65;;;0.90;;
74080;SDS011;62438;52.228;6.864;2023-01-06T14:20:38;3.95;;;0.90;;
74080;SDS011;62438;52.228;6.864;2023-01-06T14:22:39;7.93;;;1.33;;
74080;SDS011;62438;52.228;6.864;2023-01-06T14:24:41;4.60;;;0.63;;
74080;SDS011;62438;52.228;6.864;2023-01-06T14:29:42;9.27;;;0.80;;
74080;SDS011;62438;52.228;6.864;2023-01-06T14:31:38;6.13;;;0.70;;
74080;SDS011;62438;52.228;6.864;2023-01-06T14:33:41;5.65;;;0.70;;
74080;SDS011;62438;52.228;6.864;2023-01-06T14:35:43;6.25;;;0.80;;
74080;SDS011;62438;52.228;6.864;2023-01-06T14:37:47;3.05;;;1.05;;
74080;SDS011;62438;52.228;6.864;2023-01-06T14:39:52;3.97;;;0.70;;
74080;SDS011;62438;52.228;6.864;2023-01-06T14:41:56;4.95;;;0.75;;
74080;SDS011;62438;52.228;6.864;2023-01-06T14:44:46;2.50;;;0.60;;
74080;SDS011;62438;52.228;6.864;2023-01-06T14:46:30;4.00;;;0.63;;
74080;SDS011;62438;52.228;6.864;2023-01-06T14:48:33;5.53;;;0.70;;
74080;SDS011;62438;52.228;6.864;2023-01-06T14:50:46;3.85;;;0.55;;
74080;SDS011;62438;52.228;6.864;2023-01-06T14:54:56;3.33;;;0.50;;
74080;SDS011;62438;52.228;6.864;2023-01-06T14:56:58;3.92;;;0.55;;
74080;SDS011;62438;52.228;6.864;2023-01-06T14:59:17;5.90;;;0.80;;
74080;SDS011;62438;52.228;6.864;2023-01-06T15:01:21;5.28;;;0.90;;
74080;SDS011;62438;52.228;6.864;2023-01-06T15:03:24;3.85;;;0.70;;
74080;SDS011;62438;52.228;6.864;2023-01-06T15:05:27;4.15;;;0.98;;
74080;SDS011;62438;52.228;6.864;2023-01-06T15:07:30;4.32;;;0.85;;
74080;SDS011;62438;52.228;6.864;2023-01-06T15:09:31;6.05;;;0.98;;
74080;SDS011;62438;52.228;6.864;2023-01-06T15:11:31;6.30;;;0.85;;
74080;SDS011;62438;52.228;6.864;2023-01-06T15:13:41;3.92;;;0.70;;
74080;SDS011;62438;52.228;6.864;2023-01-06T15:15:42;3.92;;;0.52;;
74080;SDS011;62438;52.228;6.864;2023-01-06T15:17:43;4.90;;;1.00;;
74080;SDS011;62438;52.228;6.864;2023-01-06T15:19:44;4.93;;;1.00;;
74080;SDS011;62438;52.228;6.864;2023-01-06T15:21:46;3.63;;;0.93;;
74080;SDS011;62438;52.228;6.864;2023-01-06T15:23:49;4.20;;;0.90;;
74080;SDS011;62438;52.228;6.864;2023-01-06T15:27:53;7.70;;;0.88;;
74080;SDS011;62438;52.228;6.864;2023-01-06T15:29:55;4.82;;;1.08;;
74080;SDS011;62438;52.228;6.864;2023-01-06T15:31:59;5.25;;;0.80;;
74080;SDS011;62438;52.228;6.864;2023-01-06T15:34:07;5.07;;;0.80;;
74080;SDS011;62438;52.228;6.864;2023-01-06T15:36:15;3.95;;;0.60;;
74080;SDS011;62438;52.228;6.864;2023-01-06T15:38:29;5.20;;;0.70;;
74080;SDS011;62438;52.228;6.864;2023-01-06T15:40:32;4.50;;;0.90;;
74080;SDS011;62438;52.228;6.864;2023-01-06T15:42:33;2.63;;;0.65;;